Time;durP1;ratioP1;P1;durP2;ratioP2;P2;SDS_P1;SDS_P2;PMS_P1;PMS_P2;Temp;Humidity;BMP_temperature;BMP_pressure;BME280_temperature;BME280_humidity;BME280_pressure;Samples;Min_cycle;Max_cycle;Signal;HPM_P1;HPM_P2
2021/05/04 00:02:20;;;;;;;4.62;3.27;;;;;;;5.39;62.21;99237.58;1739501;82;21178;-78
2021/05/04 00:04:47;;;;;;;5.17;3.33;;;;;;;5.36;62.28;99241.70;1742730;82;21297;-77
2021/05/04 00:07:14;;;;;;;5.00;3.40;;;;;;;5.34;62.38;99240.09;1743043;82;21627;-77
2021/05/04 00:09:44;;;;;;;4.12;3.00;;;;;;;5.30;62.45;99244.66;1742615;82;21622;-77
2021/05/04 00:12:11;;;;;;;4.22;3.02;;;;;;;5.41;62.31;99246.22;1742863;82;21095;-77
2021/05/04 00:14:39;;;;;;;4.60;3.33;;;;;;;5.44;62.32;99246.98;1742796;82;21139;-77
2021/05/04 00:17:07;;;;;;;5.53;3.45;;;;;;;5.38;62.43;99241.61;1742428;82;21162;-77
2021/05/04 00:19:34;;;;;;;6.33;3.67;;;;;;;5.31;62.53;99246.84;1745767;82;21186;-77
2021/05/04 00:22:02;;;;;;;4.62;3.62;;;;;;;5.23;62.76;99244.17;1751106;82;21583;-77
2021/05/04 00:24:29;;;;;;;6.50;3.98;;;;;;;5.20;62.81;99248.73;1750962;82;21167;-77
2021/05/04 00:26:57;;;;;;;6.30;3.33;;;;;;;5.16;62.94;99252.47;1750994;81;21182;-77
2021/05/04 00:29:24;;;;;;;6.00;3.40;;;;;;;5.27;62.93;99259.27;1750411;82;21603;-77
2021/05/04 00:31:51;;;;;;;5.12;3.22;;;;;;;5.34;62.73;99254.04;1751071;82;21142;-77
2021/05/04 00:34:19;;;;;;;5.12;3.50;;;;;;;5.30;62.83;99261.70;1750984;82;21205;-77
2021/05/04 00:36:46;;;;;;;4.87;3.30;;;;;;;5.22;62.97;99258.69;1751298;82;21179;-77
2021/05/04 00:39:13;;;;;;;4.78;3.60;;;;;;;5.18;63.16;99263.25;1751208;82;21588;-77
2021/05/04 00:41:40;;;;;;;4.92;3.25;;;;;;;5.11;63.33;99259.75;1750698;82;21208;-77
2021/05/04 00:44:07;;;;;;;6.20;3.67;;;;;;;5.11;63.39;99262.37;1751138;81;21579;-77
2021/05/04 00:46:34;;;;;;;4.53;3.50;;;;;;;5.23;63.26;99264.28;1751149;81;21610;-78
2021/05/04 00:49:02;;;;;;;5.85;3.90;;;;;;;5.19;63.33;99257.08;1750931;82;21162;-77
2021/05/04 00:51:30;;;;;;;5.90;3.45;;;;;;;5.13;63.54;99261.80;1750821;82;21154;-77
2021/05/04 00:53:57;;;;;;;7.33;3.80;;;;;;;5.05;63.69;99260.47;1751441;82;21583;-77
2021/05/04 00:56:24;;;;;;;4.95;3.20;;;;;;;5.01;63.86;99262.02;1716418;83;21185;-77
2021/05/04 00:58:54;;;;;;;5.30;3.40;;;;;;;4.96;63.98;99267.50;1740767;82;21147;-77
2021/05/04 01:01:22;;;;;;;5.47;3.90;;;;;;;5.11;63.79;99256.65;1726195;82;21163;-77
2021/05/04 01:03:50;;;;;;;5.05;3.50;;;;;;;5.14;63.75;99254.32;1751038;82;21178;-77
2021/05/04 01:06:17;;;;;;;7.30;3.70;;;;;;;5.07;63.90;99263.83;1751028;81;21154;-77
2021/05/04 01:08:45;;;;;;;5.87;3.80;;;;;;;5.02;64.03;99256.69;1750950;82;21587;-78
2021/05/04 01:11:12;;;;;;;4.85;3.70;;;;;;;4.96;64.19;99260.95;1750879;82;21485;-77
2021/05/04 01:13:39;;;;;;;5.55;3.50;;;;;;;4.92;64.39;99262.06;1751072;81;21111;-77
2021/05/04 01:16:07;;;;;;;5.00;3.55;;;;;;;4.91;64.50;99252.50;1750937;82;21175;-77
2021/05/04 01:18:35;;;;;;;6.08;3.80;;;;;;;5.06;64.24;99254.75;1751099;82;21285;-77
2021/05/04 01:21:03;;;;;;;4.37;3.42;;;;;;;5.09;64.23;99246.73;1751175;80;21319;-77
2021/05/04 01:23:30;;;;;;;6.55;3.50;;;;;;;5.03;64.38;99251.83;1751217;82;21670;-77
2021/05/04 01:25:57;;;;;;;6.62;3.85;;;;;;;4.90;64.52;99226.77;1750914;82;21170;-78
2021/05/04 01:28:25;;;;;;;5.55;3.52;;;;;;;4.93;64.72;99243.62;1751097;82;21131;-78
2021/05/04 01:30:52;;;;;;;5.85;3.45;;;;;;;4.89;64.91;99249.97;1751129;82;21284;-78
2021/05/04 01:33:19;;;;;;;4.70;3.40;;;;;;;4.99;64.86;99240.31;1750928;82;21131;-77
2021/05/04 01:35:46;;;;;;;4.58;3.62;;;;;;;5.07;64.76;99257.28;1751204;82;21143;-78
2021/05/04 01:38:13;;;;;;;5.95;4.17;;;;;;;5.02;64.82;99251.45;1750820;82;21166;-77
2021/05/04 01:40:42;;;;;;;4.85;3.70;;;;;;;4.98;64.95;99259.11;1724911;82;21203;-77
2021/05/04 01:43:11;;;;;;;6.47;4.12;;;;;;;4.93;65.06;99263.75;1750467;82;21146;-77
2021/05/04 01:45:38;;;;;;;5.55;3.65;;;;;;;4.88;65.16;99268.41;1751088;82;21308;-77
2021/05/04 01:48:06;;;;;;;5.90;4.03;;;;;;;5.00;65.08;99260.33;1750808;81;21131;-77
2021/05/04 01:50:34;;;;;;;5.12;4.00;;;;;;;5.04;64.99;99269.25;1749727;80;21186;-78
2021/05/04 01:53:01;;;;;;;6.65;4.17;;;;;;;5.00;65.09;99268.19;1750831;82;21155;-79
2021/05/04 01:55:28;;;;;;;5.50;4.20;;;;;;;4.94;65.27;99269.38;1751243;82;21186;-78
2021/05/04 01:57:56;;;;;;;5.37;3.92;;;;;;;4.87;65.44;99264.09;1751112;82;21560;-78
2021/05/04 02:00:23;;;;;;;5.00;3.90;;;;;;;4.83;65.52;99258.64;1751064;82;21154;-78
2021/05/04 02:02:52;;;;;;;6.80;4.30;;;;;;;4.94;65.46;99266.77;1750798;82;21317;-78
2021/05/04 02:05:19;;;;;;;7.97;4.00;;;;;;;5.04;65.28;99264.49;1748037;82;21103;-78
2021/05/04 02:07:47;;;;;;;5.90;4.15;;;;;;;4.98;65.45;99272.20;1750828;82;21174;-77
2021/05/04 02:10:14;;;;;;;5.55;4.53;;;;;;;4.90;65.66;99269.17;1751007;82;21172;-78
2021/05/04 02:12:42;;;;;;;6.55;4.50;;;;;;;4.84;65.92;99278.67;1750951;81;21265;-78
2021/05/04 02:15:10;;;;;;;6.47;4.10;;;;;;;4.79;66.07;99274.15;1751107;82;21146;-78
2021/05/04 02:17:37;;;;;;;5.90;4.28;;;;;;;4.82;66.12;99276.14;1750868;81;21135;-78
2021/05/04 02:20:06;;;;;;;5.33;4.25;;;;;;;4.95;65.89;99267.15;1748534;82;21572;-78
2021/05/04 02:22:33;;;;;;;7.45;4.55;;;;;;;4.91;65.98;99262.53;1742754;82;21127;-78
2021/05/04 02:25:01;;;;;;;5.97;4.45;;;;;;;4.84;66.18;99262.95;1742756;82;21293;-78
2021/05/04 02:27:28;;;;;;;7.00;4.80;;;;;;;4.80;66.37;99266.67;1742890;82;21631;-78
2021/05/04 02:29:55;;;;;;;5.42;4.20;;;;;;;4.75;66.52;99275.61;1742786;82;21123;-78
2021/05/04 02:32:23;;;;;;;6.12;4.30;;;;;;;4.81;66.49;99272.27;1742872;82;21187;-77
2021/05/04 02:34:50;;;;;;;6.92;4.40;;;;;;;4.95;66.25;99277.63;1742775;82;21185;-76
2021/05/04 02:37:17;;;;;;;6.08;4.60;;;;;;;4.91;66.40;99273.02;1742861;82;21324;-77
2021/05/04 02:39:46;;;;;;;6.45;4.40;;;;;;;4.86;66.58;99274.17;1742644;81;21201;-76
2021/05/04 02:42:14;;;;;;;5.92;4.60;;;;;;;4.81;66.72;99282.31;1742741;82;21623;-77
2021/05/04 02:44:42;;;;;;;4.72;3.85;;;;;;;4.78;66.83;99277.69;1742811;82;21715;-76
2021/05/04 02:47:09;;;;;;;6.10;4.50;;;;;;;4.89;66.69;99278.80;1742781;82;21131;-77
2021/05/04 02:49:37;;;;;;;6.05;4.65;;;;;;;4.96;66.64;99282.39;1742686;82;21151;-77
2021/05/04 02:52:06;;;;;;;6.67;4.60;;;;;;;4.89;66.80;99278.80;1742695;81;21147;-76
2021/05/04 02:54:34;;;;;;;6.83;5.17;;;;;;;4.82;67.00;99286.63;1742719;82;21348;-77
2021/05/04 02:57:03;;;;;;;5.50;4.20;;;;;;;4.77;67.10;99278.17;1742932;82;21181;-77
2021/05/04 02:59:30;;;;;;;7.62;4.75;;;;;;;4.83;67.13;99280.43;1742728;82;21304;-78
2021/05/04 03:01:57;;;;;;;6.30;4.67;;;;;;;4.97;66.89;99277.06;1742768;82;21306;-78
2021/05/04 03:04:24;;;;;;;6.67;4.75;;;;;;;4.97;67.00;99282.30;1742745;82;21305;-78
2021/05/04 03:06:53;;;;;;;8.50;5.00;;;;;;;4.94;67.12;99279.86;1742736;82;21159;-78
2021/05/04 03:09:20;;;;;;;6.50;4.33;;;;;;;4.91;67.22;99292.67;1742853;82;21171;-78
2021/05/04 03:11:47;;;;;;;5.50;4.17;;;;;;;4.90;67.34;99279.66;1742963;82;21579;-78
2021/05/04 03:14:15;;;;;;;6.33;4.60;;;;;;;5.06;67.15;99292.30;1742981;82;21306;-78
2021/05/04 03:16:42;;;;;;;7.00;4.72;;;;;;;5.21;67.08;99285.34;1742847;82;21329;-78
2021/05/04 03:19:10;;;;;;;8.65;5.20;;;;;;;5.56;66.50;99293.47;1742776;82;21183;-78
2021/05/04 03:21:37;;;;;;;9.23;5.25;;;;;;;6.00;65.54;99299.28;1749471;82;21554;-78
2021/05/04 03:24:05;;;;;;;7.50;5.00;;;;;;;6.39;64.50;99292.61;1750934;82;21211;-78
2021/05/04 03:26:33;;;;;;;6.25;4.72;;;;;;;6.73;63.54;99293.16;1751051;82;21174;-78
2021/05/04 03:29:00;;;;;;;6.78;4.50;;;;;;;7.09;62.62;99296.70;1750967;81;21174;-78
2021/05/04 03:31:27;;;;;;;6.35;4.37;;;;;;;7.48;61.58;99291.13;1750965;82;21158;-77
2021/05/04 03:33:54;;;;;;;6.70;4.83;;;;;;;7.80;60.47;99304.83;1751231;82;21655;-77
2021/05/04 03:36:21;;;;;;;7.15;4.60;;;;;;;7.68;60.36;99305.62;1751305;82;21162;-77
2021/05/04 03:38:49;;;;;;;7.03;5.08;;;;;;;7.67;60.31;99302.16;1750863;82;21154;-78
2021/05/04 03:41:16;;;;;;;5.85;4.92;;;;;;;7.92;59.97;99307.11;1750935;82;21169;-78
2021/05/04 03:43:43;;;;;;;7.92;5.08;;;;;;;8.26;58.89;99303.54;1750916;82;21154;-78
2021/05/04 03:46:10;;;;;;;6.90;5.00;;;;;;;8.61;58.34;99308.69;1751016;82;21634;-78
2021/05/04 03:48:37;;;;;;;7.10;4.67;;;;;;;8.92;57.65;99311.32;1750998;82;21158;-77
2021/05/04 03:51:06;;;;;;;7.03;5.35;;;;;;;9.23;56.85;99310.45;1750831;80;21173;-78
2021/05/04 03:53:40;;;;;;;6.53;5.45;;;;;;;9.50;56.08;99309.41;1750984;82;21631;-79
2021/05/04 03:56:07;;;;;;;6.15;5.03;;;;;;;9.79;55.32;99306.44;1750946;82;21122;-78
2021/05/04 03:58:35;;;;;;;6.78;5.03;;;;;;;10.09;54.63;99316.97;1751044;82;21166;-78
2021/05/04 04:01:02;;;;;;;6.30;5.08;;;;;;;10.33;53.76;99312.48;1751248;82;21158;-78
2021/05/04 04:03:29;;;;;;;5.87;4.72;;;;;;;10.52;53.33;99311.09;1750953;82;21142;-78
2021/05/04 04:05:57;;;;;;;7.60;4.90;;;;;;;10.74;52.79;99309.42;1751104;81;21619;-78
2021/05/04 04:08:24;;;;;;;9.83;4.92;;;;;;;11.01;52.32;99304.25;1751180;82;21134;-78
2021/05/04 04:10:52;;;;;;;6.95;4.62;;;;;;;11.27;51.48;99306.98;1751065;82;21142;-78
2021/05/04 04:13:19;;;;;;;6.95;5.00;;;;;;;11.52;50.96;99314.28;1743259;81;21301;-78
2021/05/04 04:15:46;;;;;;;9.10;5.05;;;;;;;11.76;50.30;99314.55;1719777;83;21184;-79
2021/05/04 04:18:14;;;;;;;5.70;4.62;;;;;;;11.94;49.96;99306.42;1682985;85;21594;-79
2021/05/04 04:20:41;;;;;;;5.12;4.35;;;;;;;12.15;48.98;99301.64;1661267;85;21198;-79
2021/05/04 04:23:08;;;;;;;6.83;4.90;;;;;;;12.29;48.87;99303.95;1655640;86;21325;-78
2021/05/04 04:25:35;;;;;;;5.78;4.60;;;;;;;12.38;48.57;99304.13;1673572;85;21579;-78
2021/05/04 04:28:03;;;;;;;6.35;5.05;;;;;;;12.52;48.48;99314.42;1684712;85;21170;-78
2021/05/04 04:30:30;;;;;;;6.70;5.00;;;;;;;12.69;48.12;99311.64;1699148;84;21150;-78
2021/05/04 04:32:57;;;;;;;6.08;4.47;;;;;;;12.82;47.33;99306.11;1699286;84;21106;-78
2021/05/04 04:35:25;;;;;;;5.85;4.67;;;;;;;12.93;47.26;99316.64;1699185;84;21170;-78
2021/05/04 04:37:52;;;;;;;5.70;4.58;;;;;;;13.04;46.82;99314.86;1671294;86;21210;-79
2021/05/04 04:40:19;;;;;;;6.50;5.10;;;;;;;13.07;47.10;99314.61;1678023;85;21178;-79
2021/05/04 04:42:46;;;;;;;5.72;4.80;;;;;;;13.22;46.75;99317.23;1699278;84;21190;-79
2021/05/04 04:45:14;;;;;;;7.10;4.87;;;;;;;13.35;46.45;99313.47;1699163;84;21202;-79
2021/05/04 04:47:42;;;;;;;7.03;4.97;;;;;;;13.40;46.30;99312.12;1699193;84;21202;-78
2021/05/04 04:50:11;;;;;;;8.48;4.53;;;;;;;13.52;46.44;99305.38;1684493;85;21337;-78
2021/05/04 04:52:38;;;;;;;8.23;5.33;;;;;;;13.72;45.22;99315.51;1699100;84;21190;-77
2021/05/04 04:55:07;;;;;;;5.97;4.80;;;;;;;13.69;45.59;99311.31;1699326;84;21162;-77
2021/05/04 04:57:34;;;;;;;9.03;4.70;;;;;;;13.76;45.63;99308.45;1697913;84;21687;-78
2021/05/04 05:00:02;;;;;;;7.45;5.37;;;;;;;13.85;45.42;99315.23;1699011;84;21358;-79
2021/05/04 05:02:31;;;;;;;6.12;4.78;;;;;;;13.89;45.27;99308.18;1699306;84;21683;-79
2021/05/04 05:04:59;;;;;;;7.90;4.80;;;;;;;13.91;45.38;99314.67;1699215;84;21177;-78
2021/05/04 05:07:26;;;;;;;20.95;5.37;;;;;;;14.00;44.77;99316.98;1698896;84;21186;-79
2021/05/04 05:09:53;;;;;;;7.85;4.95;;;;;;;13.96;45.09;99317.75;1682718;85;21167;-79
2021/05/04 05:12:23;;;;;;;5.80;4.65;;;;;;;13.93;45.31;99324.19;1699195;84;21154;-79
2021/05/04 05:14:50;;;;;;;7.25;4.80;;;;;;;13.95;45.01;99317.90;1699178;84;21297;-79
2021/05/04 05:17:18;;;;;;;6.22;4.70;;;;;;;14.02;44.92;99325.17;1684551;85;21656;-79
2021/05/04 05:19:46;;;;;;;7.12;5.45;;;;;;;14.07;44.88;99327.42;1699514;84;21714;-79
2021/05/04 05:22:13;;;;;;;5.97;4.80;;;;;;;14.12;45.08;99337.14;1734124;82;21170;-78
2021/05/04 05:24:41;;;;;;;6.53;5.25;;;;;;;14.15;44.81;99330.20;1742661;82;21544;-78
2021/05/04 05:27:08;;;;;;;6.83;5.00;;;;;;;14.25;44.91;99339.51;1742471;82;21296;-78
2021/05/04 05:29:36;;;;;;;8.28;5.30;;;;;;;14.29;44.75;99332.09;1742457;82;21131;-79
2021/05/04 05:32:04;;;;;;;7.05;4.83;;;;;;;14.35;44.24;99335.52;1742803;82;21599;-79
2021/05/04 05:34:33;;;;;;;6.78;4.65;;;;;;;14.29;43.87;99341.40;1742794;82;21679;-80
2021/05/04 05:37:00;;;;;;;6.20;4.90;;;;;;;14.11;44.62;99334.12;1742853;82;21139;-79
2021/05/04 05:39:27;;;;;;;7.17;5.08;;;;;;;14.02;45.14;99333.65;1742925;82;21174;-79
2021/05/04 05:41:55;;;;;;;7.37;5.00;;;;;;;13.95;45.16;99337.34;1742801;82;21705;-81
2021/05/04 05:44:22;;;;;;;7.92;5.00;;;;;;;13.80;44.97;99334.27;1742596;82;21221;-80
2021/05/04 05:46:51;;;;;;;5.95;4.75;;;;;;;13.52;45.79;99334.59;1742585;82;21159;-81
2021/05/04 05:49:19;;;;;;;6.22;4.85;;;;;;;13.44;46.13;99329.97;1742540;81;21221;-81
2021/05/04 05:51:47;;;;;;;7.20;4.80;;;;;;;13.43;46.26;99332.27;1742633;82;21190;-80
2021/05/04 05:54:14;;;;;;;6.12;4.50;;;;;;;13.43;46.72;99334.92;1742820;82;21194;-79
2021/05/04 05:56:41;;;;;;;6.67;4.90;;;;;;;13.35;46.94;99343.54;1742865;82;21130;-81
2021/05/04 05:59:08;;;;;;;7.45;5.33;;;;;;;13.32;47.14;99349.60;1742092;82;21332;-80
2021/05/04 06:01:36;;;;;;;6.42;5.05;;;;;;;13.42;46.99;99331.41;1742510;82;21163;-80
2021/05/04 06:04:04;;;;;;;6.05;4.80;;;;;;;13.53;46.71;99330.47;1742647;82;21175;-82
2021/05/04 06:06:31;;;;;;;5.90;4.45;;;;;;;13.58;46.81;99338.00;1742795;82;21191;-82
2021/05/04 06:08:59;;;;;;;5.67;4.30;;;;;;;13.62;46.52;99334.59;1742637;82;21721;-80
2021/05/04 06:11:27;;;;;;;7.33;4.80;;;;;;;13.66;46.84;99341.30;1742464;82;21155;-79
2021/05/04 06:13:54;;;;;;;6.12;4.58;;;;;;;13.78;46.88;99333.56;1742575;82;21151;-80
2021/05/04 06:16:23;;;;;;;8.03;4.95;;;;;;;13.88;46.44;99346.36;1742760;82;21615;-80
2021/05/04 06:18:52;;;;;;;6.83;4.80;;;;;;;13.97;46.10;99331.91;1743135;82;21583;-80
2021/05/04 06:21:19;;;;;;;8.95;4.42;;;;;;;14.06;46.60;99333.71;1745197;82;21166;-80
2021/05/04 06:23:47;;;;;;;4.58;4.03;;;;;;;14.20;45.44;99331.94;1751048;81;21338;-79
2021/05/04 06:26:16;;;;;;;5.25;4.58;;;;;;;14.15;45.14;99338.17;1751025;82;21202;-80
2021/05/04 06:28:49;;;;;;;5.35;4.30;;;;;;;13.70;44.57;99338.23;1750752;82;22185;-79
2021/05/04 06:31:17;;;;;;;5.43;4.70;;;;;;;13.37;45.78;99343.43;1751070;82;21131;-80
2021/05/04 06:33:45;;;;;;;5.47;4.03;;;;;;;13.32;46.33;99340.31;1750867;82;21170;-79
2021/05/04 06:38:37;;;;;;;6.42;4.50;;;;;;;13.70;46.75;99334.75;1771374;79;23204;-79
2021/05/04 06:41:05;;;;;;;5.67;4.60;;;;;;;13.91;46.20;99335.47;1653336;85;21222;-79
2021/05/04 06:43:33;;;;;;;4.95;4.20;;;;;;;14.07;44.97;99333.56;1646334;87;21382;-79
2021/05/04 06:46:00;;;;;;;5.92;4.10;;;;;;;14.00;44.20;99334.27;1636874;86;21726;-78
2021/05/04 06:48:29;;;;;;;5.05;4.05;;;;;;;13.80;45.00;99338.26;1679622;85;21348;-79
2021/05/04 06:50:57;;;;;;;6.70;4.45;;;;;;;13.63;45.72;99341.09;1691019;85;21199;-79
2021/05/04 06:53:26;;;;;;;6.22;4.90;;;;;;;13.53;45.12;99345.55;1672787;85;21186;-78
2021/05/04 06:55:53;;;;;;;5.72;4.80;;;;;;;13.42;45.53;99359.80;1635010;88;21615;-79
2021/05/04 06:58:21;;;;;;;5.08;4.30;;;;;;;13.42;45.66;99349.17;1656449;87;21592;-79
2021/05/04 07:00:48;;;;;;;5.10;4.60;;;;;;;13.43;46.57;99367.63;1656481;87;21186;-79
2021/05/04 07:03:15;;;;;;;8.13;6.58;;;;;;;13.52;46.06;99356.67;1656997;85;21181;-80
2021/05/04 07:05:43;;;;;;;6.58;4.85;;;;;;;13.60;46.15;99354.66;1656073;87;21315;-80
2021/05/04 07:08:11;;;;;;;6.15;4.78;;;;;;;13.66;46.65;99361.23;1667653;85;21191;-79
2021/05/04 07:10:40;;;;;;;5.78;4.55;;;;;;;13.78;46.10;99362.80;1668661;85;21130;-79
2021/05/04 07:13:15;;;;;;;6.03;4.65;;;;;;;13.86;45.84;99370.94;1656334;87;21680;-79
2021/05/04 07:15:45;;;;;;;5.50;4.42;;;;;;;13.83;45.29;99373.84;1656010;87;21206;-79
2021/05/04 07:18:13;;;;;;;6.17;4.60;;;;;;;13.66;45.46;99385.14;1671770;85;21671;-80
2021/05/04 07:20:41;;;;;;;6.08;4.33;;;;;;;13.43;46.25;99383.56;1666905;85;21348;-78
2021/05/04 07:23:10;;;;;;;13.25;4.80;;;;;;;13.19;46.32;99381.21;1667769;85;21127;-79
2021/05/04 07:25:38;;;;;;;5.58;4.17;;;;;;;12.98;46.58;99377.77;1674638;85;21162;-82
2021/05/04 07:28:06;;;;;;;6.22;4.58;;;;;;;12.90;47.85;99373.98;1683792;85;21182;-80
2021/05/04 07:30:37;;;;;;;6.00;4.67;;;;;;;13.07;47.79;99379.64;1677518;85;21203;-80
2021/05/04 07:33:03;;;;;;;6.70;4.65;;;;;;;13.11;47.74;99389.02;1704921;83;21147;-79
2021/05/04 07:35:30;;;;;;;6.72;5.08;;;;;;;13.14;47.77;99391.89;1708825;83;21138;-79
2021/05/04 07:37:58;;;;;;;7.60;5.10;;;;;;;13.11;47.75;99391.67;1694794;83;21181;-80
2021/05/04 07:40:25;;;;;;;7.83;4.78;;;;;;;13.15;47.73;99390.42;1684455;84;21227;-79
2021/05/04 07:42:52;;;;;;;10.08;4.78;;;;;;;13.16;47.50;99389.45;1677859;84;21183;-79
2021/05/04 07:45:20;;;;;;;5.67;4.67;;;;;;;13.15;46.52;99393.58;1688197;84;21151;-78
2021/05/04 07:47:54;;;;;;;6.00;4.25;;;;;;;13.05;46.25;99389.54;1686266;84;21211;-78
2021/05/04 07:50:16;;;;;;;6.33;4.50;;;;;;;12.92;46.39;99389.27;1696198;84;21164;-78
2021/05/04 07:52:44;;;;;;;5.17;4.20;;;;;;;12.81;47.10;99389.34;1688051;84;21504;-80
2021/05/04 07:55:11;;;;;;;5.80;4.78;;;;;;;12.65;46.14;99389.81;1687812;84;21712;-79
2021/05/04 07:57:38;;;;;;;5.72;4.85;;;;;;;12.48;47.63;99389.92;1692164;84;21195;-79
2021/05/04 08:00:06;;;;;;;6.37;5.12;;;;;;;12.60;48.46;99395.50;1702281;84;21639;-78
2021/05/04 08:02:36;;;;;;;7.00;4.83;;;;;;;12.83;47.71;99398.52;1698081;84;21301;-79
2021/05/04 08:05:05;;;;;;;6.37;4.78;;;;;;;12.75;46.67;99397.84;1709530;84;21317;-78
2021/05/04 08:07:32;;;;;;;5.97;4.83;;;;;;;12.75;46.67;99397.84;1708101;84;21571;-78
2021/05/04 08:10:00;;;;;;;6.83;4.67;;;;;;;12.66;47.68;99399.94;1709585;84;21345;-78
2021/05/04 08:12:28;;;;;;;6.15;4.55;;;;;;;12.77;47.50;99407.36;1697152;84;21194;-79
2021/05/04 08:14:55;;;;;;;9.30;5.08;;;;;;;12.82;46.48;99405.63;1681230;85;21171;-78
2021/05/04 08:17:26;;;;;;;7.53;5.20;;;;;;;12.79;46.53;99408.55;1681226;85;21199;-78
2021/05/04 08:19:52;;;;;;;22.80;5.92;;;;;;;12.70;46.22;99407.98;1681366;85;21192;-79
2021/05/04 08:22:19;;;;;;;6.05;4.40;;;;;;;12.53;46.28;99412.92;1685758;84;21655;-78
2021/05/04 08:24:46;;;;;;;6.90;5.25;;;;;;;12.22;47.05;99411.48;1709675;84;21179;-78
2021/05/04 08:27:14;;;;;;;6.60;5.03;;;;;;;12.22;47.05;99411.48;1709681;83;21286;-78
2021/05/04 08:29:41;;;;;;;5.72;4.55;;;;;;;12.01;47.76;99406.62;1709331;84;21219;-78
2021/05/04 08:32:08;;;;;;;5.65;4.35;;;;;;;12.01;47.76;99406.62;1701111;84;21143;-80
2021/05/04 08:34:37;;;;;;;8.65;5.08;;;;;;;11.78;47.84;99410.65;1686149;84;21183;-78
2021/05/04 08:37:05;;;;;;;5.95;4.97;;;;;;;11.78;47.84;99410.65;1683194;84;21219;-78
2021/05/04 08:39:32;;;;;;;6.28;4.72;;;;;;;11.66;48.02;99420.90;1695275;83;21174;-78
2021/05/04 08:41:59;;;;;;;6.42;5.30;;;;;;;11.46;48.34;99422.02;1694238;85;21744;-78
2021/05/04 08:44:28;;;;;;;6.97;5.20;;;;;;;11.21;48.87;99423.93;1694508;83;21163;-79
2021/05/04 08:46:56;;;;;;;7.42;5.65;;;;;;;10.90;49.65;99427.64;1707381;83;21187;-79
2021/05/04 08:49:24;;;;;;;7.30;5.42;;;;;;;10.64;50.56;99430.48;1699751;83;21181;-79
2021/05/04 08:51:52;;;;;;;6.75;5.25;;;;;;;10.55;50.87;99429.86;1716601;83;21564;-78
2021/05/04 08:54:19;;;;;;;7.45;5.12;;;;;;;10.39;51.42;99422.71;1657852;86;21203;-79
2021/05/04 08:56:46;;;;;;;9.60;5.72;;;;;;;10.41;51.65;99429.57;1697758;83;21280;-79
2021/05/04 08:59:13;;;;;;;6.00;4.45;;;;;;;10.61;52.56;99425.89;1708260;83;21228;-79
2021/05/04 09:01:40;;;;;;;7.15;5.20;;;;;;;10.80;49.62;99420.88;1706380;83;21151;-79
2021/05/04 09:07:26;;;;;;;6.75;4.35;;;;;;;11.00;48.85;99410.58;1765273;79;23127;-78
2021/05/04 09:10:34;;;;;;;9.45;4.03;;;;;;;11.01;49.34;99415.38;1734164;82;21123;-77
2021/05/04 09:13:03;;;;;;;7.28;3.98;;;;;;;11.13;48.84;99419.23;1693563;83;21356;-78
2021/05/04 09:18:40;;;;;;;5.12;4.12;;;;;;;11.31;48.46;99411.66;1690872;84;21175;-77
2021/05/04 09:21:06;;;;;;;5.42;4.22;;;;;;;11.42;47.95;99413.93;1696141;84;21149;-77
2021/05/04 09:23:35;;;;;;;5.83;3.92;;;;;;;11.62;48.15;99422.94;1690824;84;21503;-77
2021/05/04 09:26:02;;;;;;;5.08;3.98;;;;;;;11.85;48.17;99416.28;1711496;84;21166;-77
2021/05/04 09:28:30;;;;;;;7.62;4.47;;;;;;;11.93;46.96;99413.84;1690864;84;21627;-78
2021/05/04 09:30:57;;;;;;;5.67;4.60;;;;;;;11.80;47.54;99406.91;1686785;84;21142;-78
2021/05/04 09:33:25;;;;;;;5.87;4.60;;;;;;;11.94;48.59;99407.11;1700870;84;21640;-78
2021/05/04 09:35:52;;;;;;;8.28;4.80;;;;;;;12.22;48.69;99408.83;1683997;84;21191;-78
2021/05/04 09:38:20;;;;;;;5.55;4.55;;;;;;;12.50;47.32;99407.03;1677029;84;21213;-78
2021/05/04 09:40:48;;;;;;;6.72;4.58;;;;;;;12.60;47.27;99420.70;1670220;85;21190;-79
2021/05/04 09:43:21;;;;;;;10.13;5.22;;;;;;;12.67;46.65;99410.41;1672254;85;21206;-78
2021/05/04 09:48:37;;;;;;;9.95;4.37;;;;;;;12.66;46.65;99395.95;1759638;79;23782;-77
2021/05/04 09:51:14;;;;;;;5.50;3.80;;;;;;;12.60;46.10;99403.46;1702368;82;21297;-77
2021/05/04 09:56:18;;;;;;;5.28;3.92;;;;;;;12.75;44.99;99396.02;1706576;83;21674;-78
2021/05/04 09:58:49;;;;;;;7.58;3.92;;;;;;;12.82;44.82;99398.98;1704429;83;21166;-78
2021/05/04 10:01:21;;;;;;;5.45;3.77;;;;;;;12.89;45.15;99400.16;1693594;83;21292;-78
2021/05/04 10:03:49;;;;;;;4.10;3.47;;;;;;;12.99;44.59;99393.55;1713811;83;21142;-78
2021/05/04 10:06:18;;;;;;;11.63;4.05;;;;;;;12.97;44.64;99389.34;1715725;83;21135;-78
2021/05/04 10:08:47;;;;;;;3.65;3.12;;;;;;;12.90;44.13;99396.53;1706533;83;21103;-77
2021/05/04 10:11:19;;;;;;;11.78;9.08;;;;;;;12.79;43.93;99388.15;1705945;83;21190;-78
2021/05/04 10:13:57;;;;;;;4.87;3.77;;;;;;;12.66;44.16;99394.16;1706037;83;21583;-78
2021/05/04 10:16:27;;;;;;;3.72;3.20;;;;;;;12.57;45.21;99401.08;1704238;83;21179;-78
2021/05/04 10:19:02;;;;;;;4.65;3.15;;;;;;;12.53;44.91;99395.69;1709153;83;21187;-77
2021/05/04 10:21:30;;;;;;;7.22;3.40;;;;;;;12.50;44.33;99399.08;1706758;83;21580;-77
2021/05/04 10:23:59;;;;;;;4.78;3.12;;;;;;;12.60;44.94;99390.70;1707117;83;21809;-78
2021/05/04 10:26:29;;;;;;;4.20;3.22;;;;;;;12.76;44.32;99387.56;1698070;83;21206;-77
2021/05/04 10:29:05;;;;;;;3.65;2.98;;;;;;;12.78;43.53;99377.67;1697021;83;21623;-78
2021/05/04 10:31:43;;;;;;;5.58;3.50;;;;;;;12.68;44.22;99395.34;1701109;83;21142;-80
2021/05/04 10:34:29;;;;;;;6.40;3.67;;;;;;;12.66;44.68;99379.57;1715501;83;22480;-79
2021/05/04 10:37:08;;;;;;;6.33;2.90;;;;;;;12.75;45.16;99383.25;1711795;83;21196;-79
2021/05/04 10:39:45;;;;;;;4.97;3.20;;;;;;;12.94;44.03;99381.16;1692264;84;21179;-78
2021/05/04 10:42:16;;;;;;;4.30;2.95;;;;;;;13.06;43.95;99376.63;1651017;87;21154;-78
2021/05/04 10:45:00;;;;;;;4.40;2.75;;;;;;;13.12;43.31;99374.77;1663651;85;21624;-78
2021/05/04 10:47:46;;;;;;;5.12;3.00;;;;;;;13.03;43.66;99390.15;1653349;86;21338;-78
2021/05/04 10:50:23;;;;;;;5.37;2.60;;;;;;;13.08;44.21;99375.98;1660172;85;21176;-78
2021/05/04 10:52:58;;;;;;;4.58;2.60;;;;;;;13.25;42.83;99379.35;1650780;86;21727;-78
2021/05/04 10:55:28;;;;;;;5.12;3.72;;;;;;;13.37;42.92;99384.59;1649038;86;21623;-79
2021/05/04 10:58:05;;;;;;;4.92;3.10;;;;;;;13.38;41.72;99377.81;1663302;86;21155;-78
2021/05/04 11:00:54;;;;;;;4.15;2.60;;;;;;;13.38;41.72;99377.81;1670583;86;21191;-80
2021/05/04 11:03:37;;;;;;;5.42;2.40;;;;;;;13.30;41.71;99381.61;1670167;86;21569;-79
2021/05/04 11:06:11;;;;;;;7.30;2.83;;;;;;;13.19;42.49;99375.90;1656474;86;21147;-80
2021/05/04 11:08:51;;;;;;;5.45;3.05;;;;;;;13.24;42.71;99372.85;1769220;79;22970;-78
2021/05/04 11:11:30;;;;;;;6.60;2.65;;;;;;;13.30;42.84;99384.27;1753908;82;21611;-78
2021/05/04 11:14:01;;;;;;;2.85;2.17;;;;;;;13.45;42.64;99372.80;1724373;82;21131;-79
2021/05/04 11:16:45;;;;;;;4.58;2.30;;;;;;;13.66;41.86;99374.52;1739859;81;21220;-78
2021/05/04 11:19:29;;;;;;;3.17;2.50;;;;;;;13.83;40.33;99372.52;1679212;85;21603;-79
2021/05/04 11:22:14;;;;;;;4.85;2.75;;;;;;;13.86;40.53;99362.96;1684410;85;21180;-79
2021/05/04 11:24:47;;;;;;;4.15;2.58;;;;;;;13.91;40.88;99376.67;1680574;84;21207;-78
2021/05/04 11:27:21;;;;;;;2.72;2.10;;;;;;;13.98;39.86;99369.45;1679875;84;21158;-78
2021/05/04 11:29:51;;;;;;;2.83;2.25;;;;;;;13.89;40.52;99365.33;1680187;84;21190;-77
2021/05/04 11:32:41;;;;;;;16.57;3.40;;;;;;;13.89;40.52;99365.33;1679105;85;21158;-78
2021/05/04 11:35:09;;;;;;;2.40;2.10;;;;;;;14.04;39.93;99366.23;1663933;85;21159;-77
2021/05/04 11:37:44;;;;;;;3.72;2.30;;;;;;;14.17;39.13;99366.81;1669842;84;21183;-80
2021/05/04 11:40:20;;;;;;;2.72;2.00;;;;;;;14.17;39.13;99366.81;1653671;85;21218;-78
2021/05/04 11:45:40;;;;;;;4.30;2.40;;;;;;;14.10;38.79;99356.38;1754763;79;23427;-78
2021/05/04 11:48:09;;;;;;;5.40;2.40;;;;;;;13.99;38.62;99365.34;1713271;83;21202;-78
2021/05/04 11:50:40;;;;;;;4.47;2.47;;;;;;;13.91;39.04;99370.03;1708224;84;21162;-78
2021/05/04 11:53:10;;;;;;;5.00;2.30;;;;;;;13.87;39.84;99359.80;1708014;84;21147;-79
2021/05/04 11:55:41;;;;;;;5.03;2.50;;;;;;;14.17;40.37;99357.50;1714214;83;21673;-79
2021/05/04 11:58:24;;;;;;;3.75;2.30;;;;;;;14.17;40.37;99357.50;1723090;83;21735;-78
2021/05/04 12:01:03;;;;;;;3.75;2.90;;;;;;;14.33;40.52;99359.58;1723129;83;21229;-79
2021/05/04 12:03:32;;;;;;;10.98;2.87;;;;;;;14.41;40.64;99359.72;1723012;83;21179;-78